CheckWX is a tool to help pilots better visualize weather data.  It is not intended as a substitute for an official pre-flight weather briefing.

07:44:28 UTC

EGBJ METAR
Gloucestershire Airport
Staverton, United Kingdom
Current

13 hours ago

EGBJ 051850Z 22018G28KT 9999 SCT014 BKN020 09/07 Q1012
Observed
Dec-5 @ 18:50 UTC
Wind
  • 220° at 18 KTS
  • Gusting to 28 KTS
Visibility
10,000+ meters
Flight Rules
MVFR
Cloud Levels
  • Scattered at 1,400' AGL
  • Broken at 2,000' AGL
Temperature
C / 48°F
Dewpoint
C / 45°F
Humidity
87%
Altimeter
29.88" Hg
Pressure
1011.92 hPa
Previous

13 hours ago

EGBJ 051820Z 22017G27KT 190V260 9999 SCT015 BKN020 09/07 Q1013
Observed
Dec-5 @ 18:20 UTC
Wind
  • 220° at 17 KTS
  • Gusting to 27 KTS
Visibility
10,000+ meters
Flight Rules
MVFR
Cloud Levels
  • Scattered at 1,500' AGL
  • Broken at 2,000' AGL
Temperature
C / 48°F
Dewpoint
C / 45°F
Humidity
87%
Altimeter
29.91" Hg
Pressure
1012.92 hPa
Previous

14 hours ago

EGBJ 051750Z 22016KT 200V260 9999 SCT015 BKN022 09/07 Q1013
Observed
Dec-5 @ 17:50 UTC
Wind
  • 220° at 16 KTS
Visibility
10,000+ meters
Flight Rules
MVFR
Cloud Levels
  • Scattered at 1,500' AGL
  • Broken at 2,200' AGL
Temperature
C / 48°F
Dewpoint
C / 45°F
Humidity
87%
Altimeter
29.91" Hg
Pressure
1012.92 hPa